sensor_id;sensor_type;location;lat;lon;timestamp;temperature;humidity
1381;DHT22;684;48.342;10.096;2024-02-04T00:00:52;9.00;14.60
1381;DHT22;684;48.342;10.096;2024-02-04T00:03:18;9.00;14.60
1381;DHT22;684;48.342;10.096;2024-02-04T00:05:47;9.00;14.70
1381;DHT22;684;48.342;10.096;2024-02-04T00:08:14;9.00;14.70
1381;DHT22;684;48.342;10.096;2024-02-04T00:10:42;8.90;14.70
1381;DHT22;684;48.342;10.096;2024-02-04T00:13:09;8.90;14.70
1381;DHT22;684;48.342;10.096;2024-02-04T00:15:37;8.90;14.60
1381;DHT22;684;48.342;10.096;2024-02-04T00:18:04;8.90;14.60
1381;DHT22;684;48.342;10.096;2024-02-04T00:20:31;8.90;14.70
1381;DHT22;684;48.342;10.096;2024-02-04T00:22:59;8.90;14.70
1381;DHT22;684;48.342;10.096;2024-02-04T00:25:25;8.90;14.70
1381;DHT22;684;48.342;10.096;2024-02-04T00:27:54;8.90;14.60
1381;DHT22;684;48.342;10.096;2024-02-04T00:30:21;8.90;14.70
1381;DHT22;684;48.342;10.096;2024-02-04T00:32:49;8.90;14.70
1381;DHT22;684;48.342;10.096;2024-02-04T00:35:15;8.80;14.60
1381;DHT22;684;48.342;10.096;2024-02-04T00:37:42;8.80;14.70
1381;DHT22;684;48.342;10.096;2024-02-04T00:40:10;8.80;14.80
1381;DHT22;684;48.342;10.096;2024-02-04T00:42:37;8.80;14.90
1381;DHT22;684;48.342;10.096;2024-02-04T00:45:04;8.80;15.00
1381;DHT22;684;48.342;10.096;2024-02-04T00:47:31;8.80;14.90
1381;DHT22;684;48.342;10.096;2024-02-04T00:49:59;8.80;15.00
1381;DHT22;684;48.342;10.096;2024-02-04T00:52:26;8.80;15.00
1381;DHT22;684;48.342;10.096;2024-02-04T00:54:52;8.80;15.10
1381;DHT22;684;48.342;10.096;2024-02-04T00:57:19;8.80;15.10
1381;DHT22;684;48.342;10.096;2024-02-04T00:59:46;8.80;15.10
1381;DHT22;684;48.342;10.096;2024-02-04T01:02:12;8.80;15.10
1381;DHT22;684;48.342;10.096;2024-02-04T01:04:39;8.80;15.10
1381;DHT22;684;48.342;10.096;2024-02-04T01:07:07;8.80;15.10
1381;DHT22;684;48.342;10.096;2024-02-04T01:09:34;8.70;15.10
1381;DHT22;684;48.342;10.096;2024-02-04T01:12:01;8.70;15.20
1381;DHT22;684;48.342;10.096;2024-02-04T01:14:28;8.70;15.30
1381;DHT22;684;48.342;10.096;2024-02-04T01:16:55;8.60;15.30
1381;DHT22;684;48.342;10.096;2024-02-04T01:19:22;8.60;15.40
1381;DHT22;684;48.342;10.096;2024-02-04T01:21:48;8.60;15.40
1381;DHT22;684;48.342;10.096;2024-02-04T01:24:16;8.60;15.40
1381;DHT22;684;48.342;10.096;2024-02-04T01:26:43;8.60;15.50
1381;DHT22;684;48.342;10.096;2024-02-04T01:29:10;8.60;15.60
1381;DHT22;684;48.342;10.096;2024-02-04T01:31:37;8.60;15.70
1381;DHT22;684;48.342;10.096;2024-02-04T01:34:03;8.60;15.60
1381;DHT22;684;48.342;10.096;2024-02-04T01:36:30;8.60;15.70
1381;DHT22;684;48.342;10.096;2024-02-04T01:38:57;8.60;15.80
1381;DHT22;684;48.342;10.096;2024-02-04T01:41:25;8.60;15.80
1381;DHT22;684;48.342;10.096;2024-02-04T01:43:53;8.50;16.00
1381;DHT22;684;48.342;10.096;2024-02-04T01:46:20;8.50;16.10
1381;DHT22;684;48.342;10.096;2024-02-04T01:48:48;8.50;16.10
1381;DHT22;684;48.342;10.096;2024-02-04T01:51:16;8.50;16.70
1381;DHT22;684;48.342;10.096;2024-02-04T01:53:46;8.50;16.20
1381;DHT22;684;48.342;10.096;2024-02-04T01:56:13;8.40;16.30
1381;DHT22;684;48.342;10.096;2024-02-04T01:58:42;8.40;16.30
1381;DHT22;684;48.342;10.096;2024-02-04T02:01:09;8.40;16.50
1381;DHT22;684;48.342;10.096;2024-02-04T02:03:38;8.40;16.50
1381;DHT22;684;48.342;10.096;2024-02-04T02:06:05;8.40;16.40
1381;DHT22;684;48.342;10.096;2024-02-04T02:08:32;8.40;16.80
1381;DHT22;684;48.342;10.096;2024-02-04T02:11:07;8.30;16.60
1381;DHT22;684;48.342;10.096;2024-02-04T02:13:37;8.30;16.80
1381;DHT22;684;48.342;10.096;2024-02-04T02:16:09;8.20;16.80
1381;DHT22;684;48.342;10.096;2024-02-04T02:18:43;8.20;17.00
1381;DHT22;684;48.342;10.096;2024-02-04T02:21:19;8.10;17.20
1381;DHT22;684;48.342;10.096;2024-02-04T02:23:53;8.10;17.30
1381;DHT22;684;48.342;10.096;2024-02-04T02:26:26;8.10;17.40
1381;DHT22;684;48.342;10.096;2024-02-04T02:28:53;8.00;17.50
1381;DHT22;684;48.342;10.096;2024-02-04T02:31:20;8.00;17.60
1381;DHT22;684;48.342;10.096;2024-02-04T02:33:47;8.00;17.50
1381;DHT22;684;48.342;10.096;2024-02-04T02:36:18;8.00;17.60
1381;DHT22;684;48.342;10.096;2024-02-04T02:38:53;8.00;17.60
1381;DHT22;684;48.342;10.096;2024-02-04T02:41:26;8.00;17.70
1381;DHT22;684;48.342;10.096;2024-02-04T02:43:54;8.10;17.70
1381;DHT22;684;48.342;10.096;2024-02-04T02:46:22;8.10;17.70
1381;DHT22;684;48.342;10.096;2024-02-04T02:48:49;8.10;17.60
1381;DHT22;684;48.342;10.096;2024-02-04T02:51:16;8.10;17.60
1381;DHT22;684;48.342;10.096;2024-02-04T02:53:43;8.10;17.50
1381;DHT22;684;48.342;10.096;2024-02-04T02:56:10;8.10;17.30
1381;DHT22;684;48.342;10.096;2024-02-04T02:58:38;8.10;17.30
1381;DHT22;684;48.342;10.096;2024-02-04T03:01:05;8.10;17.30
1381;DHT22;684;48.342;10.096;2024-02-04T03:03:31;8.10;17.30
1381;DHT22;684;48.342;10.096;2024-02-04T03:05:58;8.10;17.40
1381;DHT22;684;48.342;10.096;2024-02-04T03:08:25;8.10;17.40
1381;DHT22;684;48.342;10.096;2024-02-04T03:10:52;8.10;17.30
1381;DHT22;684;48.342;10.096;2024-02-04T03:13:18;8.10;17.70
1381;DHT22;684;48.342;10.096;2024-02-04T03:15:46;8.10;17.30
1381;DHT22;684;48.342;10.096;2024-02-04T03:18:13;8.10;17.20
1381;DHT22;684;48.342;10.096;2024-02-04T03:20:40;8.10;17.10
1381;DHT22;684;48.342;10.096;2024-02-04T03:23:06;8.00;17.00
1381;DHT22;684;48.342;10.096;2024-02-04T03:25:33;8.00;17.10
1381;DHT22;684;48.342;10.096;2024-02-04T03:28:00;8.00;17.20
1381;DHT22;684;48.342;10.096;2024-02-04T03:30:26;8.00;17.10
1381;DHT22;684;48.342;10.096;2024-02-04T03:32:55;8.00;17.20
1381;DHT22;684;48.342;10.096;2024-02-04T03:35:21;8.00;17.30
1381;DHT22;684;48.342;10.096;2024-02-04T03:37:48;8.00;17.30
1381;DHT22;684;48.342;10.096;2024-02-04T03:40:15;8.00;17.30
1381;DHT22;684;48.342;10.096;2024-02-04T03:42:43;8.00;17.30
1381;DHT22;684;48.342;10.096;2024-02-04T03:45:10;8.00;17.30
1381;DHT22;684;48.342;10.096;2024-02-04T03:47:36;7.90;17.30
1381;DHT22;684;48.342;10.096;2024-02-04T03:50:05;7.90;17.40
1381;DHT22;684;48.342;10.096;2024-02-04T03:52:32;7.90;17.30
1381;DHT22;684;48.342;10.096;2024-02-04T03:54:59;7.90;17.40
1381;DHT22;684;48.342;10.096;2024-02-04T03:57:26;7.90;17.40
1381;DHT22;684;48.342;10.096;2024-02-04T03:59:52;7.90;17.40
1381;DHT22;684;48.342;10.096;2024-02-04T04:02:19;7.90;17.40
1381;DHT22;684;48.342;10.096;2024-02-04T04:04:46;7.90;17.40
1381;DHT22;684;48.342;10.096;2024-02-04T04:07:15;7.90;17.50
1381;DHT22;684;48.342;10.096;2024-02-04T04:09:42;7.90;17.60
1381;DHT22;684;48.342;10.096;2024-02-04T04:12:08;7.90;17.50
1381;DHT22;684;48.342;10.096;2024-02-04T04:14:35;7.90;17.50
1381;DHT22;684;48.342;10.096;2024-02-04T04:17:02;7.90;17.60
1381;DHT22;684;48.342;10.096;2024-02-04T04:19:28;7.90;17.50
1381;DHT22;684;48.342;10.096;2024-02-04T04:21:55;7.90;17.50
1381;DHT22;684;48.342;10.096;2024-02-04T04:24:23;7.90;17.60
1381;DHT22;684;48.342;10.096;2024-02-04T04:26:50;7.90;17.50
1381;DHT22;684;48.342;10.096;2024-02-04T04:29:17;7.90;17.50
1381;DHT22;684;48.342;10.096;2024-02-04T04:31:43;7.90;17.60
1381;DHT22;684;48.342;10.096;2024-02-04T04:34:10;7.90;17.70
1381;DHT22;684;48.342;10.096;2024-02-04T04:36:37;7.90;17.70
1381;DHT22;684;48.342;10.096;2024-02-04T04:39:04;7.90;17.70
1381;DHT22;684;48.342;10.096;2024-02-04T04:41:32;7.90;17.90
1381;DHT22;684;48.342;10.096;2024-02-04T04:43:58;7.80;17.90
1381;DHT22;684;48.342;10.096;2024-02-04T04:46:25;7.80;18.10
1381;DHT22;684;48.342;10.096;2024-02-04T04:48:52;7.80;18.00
1381;DHT22;684;48.342;10.096;2024-02-04T04:51:18;7.80;18.10
1381;DHT22;684;48.342;10.096;2024-02-04T04:53:45;7.80;18.10
1381;DHT22;684;48.342;10.096;2024-02-04T04:56:12;7.80;18.00
1381;DHT22;684;48.342;10.096;2024-02-04T04:58:40;7.80;18.00
1381;DHT22;684;48.342;10.096;2024-02-04T05:01:07;7.80;18.10
1381;DHT22;684;48.342;10.096;2024-02-04T05:03:33;7.80;18.20
1381;DHT22;684;48.342;10.096;2024-02-04T05:06:00;7.80;18.20
1381;DHT22;684;48.342;10.096;2024-02-04T05:08:27;7.80;18.20
1381;DHT22;684;48.342;10.096;2024-02-04T05:10:54;7.70;18.10
1381;DHT22;684;48.342;10.096;2024-02-04T05:13:20;7.70;18.10
1381;DHT22;684;48.342;10.096;2024-02-04T05:15:49;7.70;18.00
1381;DHT22;684;48.342;10.096;2024-02-04T05:18:15;7.80;18.10
1381;DHT22;684;48.342;10.096;2024-02-04T05:20:42;7.70;18.10
1381;DHT22;684;48.342;10.096;2024-02-04T05:23:09;7.70;18.10
1381;DHT22;684;48.342;10.096;2024-02-04T05:25:36;7.70;18.20
1381;DHT22;684;48.342;10.096;2024-02-04T05:28:03;7.60;18.30
1381;DHT22;684;48.342;10.096;2024-02-04T05:30:30;7.60;18.40
1381;DHT22;684;48.342;10.096;2024-02-04T05:32:58;7.60;18.50
1381;DHT22;684;48.342;10.096;2024-02-04T05:35:24;7.50;18.60
1381;DHT22;684;48.342;10.096;2024-02-04T05:37:51;7.50;18.70
1381;DHT22;684;48.342;10.096;2024-02-04T05:40:18;7.50;18.90
1381;DHT22;684;48.342;10.096;2024-02-04T05:42:46;7.40;18.90
1381;DHT22;684;48.342;10.096;2024-02-04T05:45:13;7.40;18.90
1381;DHT22;684;48.342;10.096;2024-02-04T05:47:39;7.30;19.00
1381;DHT22;684;48.342;10.096;2024-02-04T05:50:08;7.30;19.40
1381;DHT22;684;48.342;10.096;2024-02-04T05:52:35;7.30;19.40
1381;DHT22;684;48.342;10.096;2024-02-04T05:55:02;7.20;19.50
1381;DHT22;684;48.342;10.096;2024-02-04T05:57:28;7.30;19.70
1381;DHT22;684;48.342;10.096;2024-02-04T05:59:55;7.30;19.80
1381;DHT22;684;48.342;10.096;2024-02-04T06:02:24;7.30;19.80
1381;DHT22;684;48.342;10.096;2024-02-04T06:04:51;7.30;19.80
1381;DHT22;684;48.342;10.096;2024-02-04T06:07:19;7.30;19.80
1381;DHT22;684;48.342;10.096;2024-02-04T06:09:46;7.30;20.10
1381;DHT22;684;48.342;10.096;2024-02-04T06:12:12;7.30;19.60
1381;DHT22;684;48.342;10.096;2024-02-04T06:14:39;7.30;19.80
1381;DHT22;684;48.342;10.096;2024-02-04T06:17:06;7.30;19.70
1381;DHT22;684;48.342;10.096;2024-02-04T06:19:34;7.30;19.70
1381;DHT22;684;48.342;10.096;2024-02-04T06:22:00;7.30;19.70
1381;DHT22;684;48.342;10.096;2024-02-04T06:24:28;7.30;19.80
1381;DHT22;684;48.342;10.096;2024-02-04T06:26:55;7.30;19.90
1381;DHT22;684;48.342;10.096;2024-02-04T06:29:22;7.30;19.90
1381;DHT22;684;48.342;10.096;2024-02-04T06:31:49;7.20;19.80
1381;DHT22;684;48.342;10.096;2024-02-04T06:34:15;7.20;20.00
1381;DHT22;684;48.342;10.096;2024-02-04T06:36:43;7.20;19.90
1381;DHT22;684;48.342;10.096;2024-02-04T06:39:10;7.20;20.00
1381;DHT22;684;48.342;10.096;2024-02-04T06:41:38;7.20;20.10
1381;DHT22;684;48.342;10.096;2024-02-04T06:44:05;7.20;20.20
1381;DHT22;684;48.342;10.096;2024-02-04T06:46:32;7.20;20.20
1381;DHT22;684;48.342;10.096;2024-02-04T06:48:59;7.20;20.20
1381;DHT22;684;48.342;10.096;2024-02-04T06:51:26;7.20;20.30
1381;DHT22;684;48.342;10.096;2024-02-04T06:53:53;7.20;20.50
1381;DHT22;684;48.342;10.096;2024-02-04T06:56:20;7.20;20.50
1381;DHT22;684;48.342;10.096;2024-02-04T06:58:48;7.20;20.50
1381;DHT22;684;48.342;10.096;2024-02-04T07:01:14;7.10;20.70
1381;DHT22;684;48.342;10.096;2024-02-04T07:03:41;7.20;20.90
1381;DHT22;684;48.342;10.096;2024-02-04T07:06:08;7.10;21.00
1381;DHT22;684;48.342;10.096;2024-02-04T07:08:34;7.10;21.10
1381;DHT22;684;48.342;10.096;2024-02-04T07:11:01;7.10;21.30
1381;DHT22;684;48.342;10.096;2024-02-04T07:13:28;7.20;21.20
1381;DHT22;684;48.342;10.096;2024-02-04T07:15:57;7.20;21.20
1381;DHT22;684;48.342;10.096;2024-02-04T07:18:24;7.20;21.10
1381;DHT22;684;48.342;10.096;2024-02-04T07:20:51;7.20;21.20
1381;DHT22;684;48.342;10.096;2024-02-04T07:23:17;7.20;21.10
1381;DHT22;684;48.342;10.096;2024-02-04T07:25:44;7.20;21.10
1381;DHT22;684;48.342;10.096;2024-02-04T07:28:11;7.20;21.00
1381;DHT22;684;48.342;10.096;2024-02-04T07:30:38;7.10;21.10
1381;DHT22;684;48.342;10.096;2024-02-04T07:33:06;7.10;21.00
1381;DHT22;684;48.342;10.096;2024-02-04T07:35:32;7.20;21.10
1381;DHT22;684;48.342;10.096;2024-02-04T07:37:59;7.20;21.00
1381;DHT22;684;48.342;10.096;2024-02-04T07:40:26;7.20;21.00
1381;DHT22;684;48.342;10.096;2024-02-04T07:42:53;7.20;21.00
1381;DHT22;684;48.342;10.096;2024-02-04T07:45:20;7.20;20.90
1381;DHT22;684;48.342;10.096;2024-02-04T07:47:47;7.20;20.80
1381;DHT22;684;48.342;10.096;2024-02-04T07:50:15;7.20;21.00
1381;DHT22;684;48.342;10.096;2024-02-04T07:52:41;7.20;21.20
1381;DHT22;684;48.342;10.096;2024-02-04T07:55:08;7.20;20.90
1381;DHT22;684;48.342;10.096;2024-02-04T07:57:35;7.20;20.90
1381;DHT22;684;48.342;10.096;2024-02-04T08:00:02;7.20;20.80
1381;DHT22;684;48.342;10.096;2024-02-04T08:02:31;7.20;20.80
1381;DHT22;684;48.342;10.096;2024-02-04T08:04:58;7.30;20.90
1381;DHT22;684;48.342;10.096;2024-02-04T08:07:26;7.30;21.10
1381;DHT22;684;48.342;10.096;2024-02-04T08:09:53;7.40;21.00
1381;DHT22;684;48.342;10.096;2024-02-04T08:12:20;7.50;20.70
1381;DHT22;684;48.342;10.096;2024-02-04T08:14:47;7.60;20.30
1381;DHT22;684;48.342;10.096;2024-02-04T08:17:13;7.70;20.00
1381;DHT22;684;48.342;10.096;2024-02-04T08:19:40;7.80;19.70
1381;DHT22;684;48.342;10.096;2024-02-04T08:22:07;7.80;19.50
1381;DHT22;684;48.342;10.096;2024-02-04T08:24:35;7.80;19.60
1381;DHT22;684;48.342;10.096;2024-02-04T08:27:02;7.80;19.70
1381;DHT22;684;48.342;10.096;2024-02-04T08:29:29;7.80;19.60
1381;DHT22;684;48.342;10.096;2024-02-04T08:31:56;7.80;19.60
1381;DHT22;684;48.342;10.096;2024-02-04T08:34:22;7.80;19.50
1381;DHT22;684;48.342;10.096;2024-02-04T08:36:51;7.80;19.40
1381;DHT22;684;48.342;10.096;2024-02-04T08:39:18;7.90;19.40
1381;DHT22;684;48.342;10.096;2024-02-04T08:41:46;7.90;19.30
1381;DHT22;684;48.342;10.096;2024-02-04T08:44:12;8.00;19.00
1381;DHT22;684;48.342;10.096;2024-02-04T08:46:39;8.00;19.00
1381;DHT22;684;48.342;10.096;2024-02-04T08:49:06;8.10;19.00
1381;DHT22;684;48.342;10.096;2024-02-04T08:51:33;8.20;18.70
1381;DHT22;684;48.342;10.096;2024-02-04T08:53:59;8.20;18.50
1381;DHT22;684;48.342;10.096;2024-02-04T08:56:26;8.30;18.40
1381;DHT22;684;48.342;10.096;2024-02-04T08:58:55;8.40;18.10
1381;DHT22;684;48.342;10.096;2024-02-04T09:01:22;8.40;18.00
1381;DHT22;684;48.342;10.096;2024-02-04T09:03:48;8.50;17.80
1381;DHT22;684;48.342;10.096;2024-02-04T09:06:15;8.60;17.40
1381;DHT22;684;48.342;10.096;2024-02-04T09:08:42;8.60;17.50
1381;DHT22;684;48.342;10.096;2024-02-04T09:11:09;8.70;17.00
1381;DHT22;684;48.342;10.096;2024-02-04T09:13:35;8.70;16.90
1381;DHT22;684;48.342;10.096;2024-02-04T09:16:04;8.70;17.00
1381;DHT22;684;48.342;10.096;2024-02-04T09:18:30;9.00;17.10
1381;DHT22;684;48.342;10.096;2024-02-04T09:20:57;9.60;16.10
1381;DHT22;684;48.342;10.096;2024-02-04T09:23:24;10.20;14.90
1381;DHT22;684;48.342;10.096;2024-02-04T09:25:51;10.40;13.90
1381;DHT22;684;48.342;10.096;2024-02-04T09:28:18;10.40;13.10
1381;DHT22;684;48.342;10.096;2024-02-04T09:30:46;10.50;13.20
1381;DHT22;684;48.342;10.096;2024-02-04T09:33:14;10.70;13.00
1381;DHT22;684;48.342;10.096;2024-02-04T09:35:41;11.10;12.30
1381;DHT22;684;48.342;10.096;2024-02-04T09:38:08;11.60;11.10
1381;DHT22;684;48.342;10.096;2024-02-04T09:40:35;11.90;10.00
1381;DHT22;684;48.342;10.096;2024-02-04T09:43:02;12.10;9.30
1381;DHT22;684;48.342;10.096;2024-02-04T09:45:28;12.10;8.90
1381;DHT22;684;48.342;10.096;2024-02-04T09:47:56;11.70;9.10
1381;DHT22;684;48.342;10.096;2024-02-04T09:50:26;11.40;9.80
1381;DHT22;684;48.342;10.096;2024-02-04T09:52:59;11.20;10.30
1381;DHT22;684;48.342;10.096;2024-02-04T09:55:26;11.10;10.80
1381;DHT22;684;48.342;10.096;2024-02-04T09:57:55;11.00;11.10
1381;DHT22;684;48.342;10.096;2024-02-04T10:00:22;10.90;11.30
1381;DHT22;684;48.342;10.096;2024-02-04T10:02:49;10.80;11.50
1381;DHT22;684;48.342;10.096;2024-02-04T10:05:16;10.70;11.80
1381;DHT22;684;48.342;10.096;2024-02-04T10:07:44;10.70;11.90
1381;DHT22;684;48.342;10.096;2024-02-04T10:10:11;10.70;12.20
1381;DHT22;684;48.342;10.096;2024-02-04T10:12:38;11.00;12.30
1381;DHT22;684;48.342;10.096;2024-02-04T10:15:07;11.60;11.40
1381;DHT22;684;48.342;10.096;2024-02-04T10:17:34;11.80;10.20
1381;DHT22;684;48.342;10.096;2024-02-04T10:20:01;11.90;10.00
1381;DHT22;684;48.342;10.096;2024-02-04T10:22:28;12.00;9.70
1381;DHT22;684;48.342;10.096;2024-02-04T10:25:05;12.40;9.80
1381;DHT22;684;48.342;10.096;2024-02-04T10:27:32;13.00;8.50
1381;DHT22;684;48.342;10.096;2024-02-04T10:29:59;13.30;7.60
1381;DHT22;684;48.342;10.096;2024-02-04T10:32:26;13.70;7.30
1381;DHT22;684;48.342;10.096;2024-02-04T10:34:53;14.00;6.20
1381;DHT22;684;48.342;10.096;2024-02-04T10:37:20;14.30;5.80
1381;DHT22;684;48.342;10.096;2024-02-04T10:39:46;14.50;5.30
1381;DHT22;684;48.342;10.096;2024-02-04T10:42:15;14.70;4.60
1381;DHT22;684;48.342;10.096;2024-02-04T10:44:45;15.00;4.20
1381;DHT22;684;48.342;10.096;2024-02-04T10:47:17;15.30;3.50
1381;DHT22;684;48.342;10.096;2024-02-04T10:49:51;15.60;3.30
1381;DHT22;684;48.342;10.096;2024-02-04T10:52:20;15.80;2.20
1381;DHT22;684;48.342;10.096;2024-02-04T10:54:49;15.90;1.90
1381;DHT22;684;48.342;10.096;2024-02-04T10:57:20;15.90;1.40
1381;DHT22;684;48.342;10.096;2024-02-04T10:59:48;15.90;1.40
1381;DHT22;684;48.342;10.096;2024-02-04T11:02:15;16.00;1.00
1381;DHT22;684;48.342;10.096;2024-02-04T11:04:43;15.90;1.00
1381;DHT22;684;48.342;10.096;2024-02-04T11:07:12;15.70;1.00
1381;DHT22;684;48.342;10.096;2024-02-04T11:09:40;15.60;1.70
1381;DHT22;684;48.342;10.096;2024-02-04T11:12:11;15.60;1.50
1381;DHT22;684;48.342;10.096;2024-02-04T11:14:41;15.70;1.40
1381;DHT22;684;48.342;10.096;2024-02-04T11:17:36;15.80;1.10
1381;DHT22;684;48.342;10.096;2024-02-04T11:20:17;15.80;1.80
1381;DHT22;684;48.342;10.096;2024-02-04T11:23:13;15.80;1.00
1381;DHT22;684;48.342;10.096;2024-02-04T11:25:46;15.60;1.00
1381;DHT22;684;48.342;10.096;2024-02-04T11:28:13;15.60;1.10
1381;DHT22;684;48.342;10.096;2024-02-04T11:30:44;15.50;1.30
1381;DHT22;684;48.342;10.096;2024-02-04T11:33:12;15.30;1.20
1381;DHT22;684;48.342;10.096;2024-02-04T11:35:39;15.00;1.70
1381;DHT22;684;48.342;10.096;2024-02-04T11:38:06;14.70;2.50
1381;DHT22;684;48.342;10.096;2024-02-04T11:40:34;14.40;3.10
1381;DHT22;684;48.342;10.096;2024-02-04T11:43:06;14.30;3.40
1381;DHT22;684;48.342;10.096;2024-02-04T11:45:33;14.20;3.60
1381;DHT22;684;48.342;10.096;2024-02-04T11:48:07;14.00;4.20
1381;DHT22;684;48.342;10.096;2024-02-04T11:50:34;14.10;5.00
1381;DHT22;684;48.342;10.096;2024-02-04T11:53:05;14.30;4.30
1381;DHT22;684;48.342;10.096;2024-02-04T11:55:33;14.40;4.40
1381;DHT22;684;48.342;10.096;2024-02-04T11:58:01;14.80;4.00
1381;DHT22;684;48.342;10.096;2024-02-04T12:00:28;15.20;3.30
1381;DHT22;684;48.342;10.096;2024-02-04T12:03:01;15.30;2.40
1381;DHT22;684;48.342;10.096;2024-02-04T12:05:31;15.00;2.40
1381;DHT22;684;48.342;10.096;2024-02-04T12:07:59;14.80;3.00
1381;DHT22;684;48.342;10.096;2024-02-04T12:10:26;14.70;3.30
1381;DHT22;684;48.342;10.096;2024-02-04T12:12:53;14.70;3.70
1381;DHT22;684;48.342;10.096;2024-02-04T12:15:20;14.50;3.60
1381;DHT22;684;48.342;10.096;2024-02-04T12:17:47;14.50;3.80
1381;DHT22;684;48.342;10.096;2024-02-04T12:20:14;14.30;3.50
1381;DHT22;684;48.342;10.096;2024-02-04T12:22:42;14.20;3.80
1381;DHT22;684;48.342;10.096;2024-02-04T12:25:10;14.10;4.50
1381;DHT22;684;48.342;10.096;2024-02-04T12:27:37;14.00;4.80
1381;DHT22;684;48.342;10.096;2024-02-04T12:30:05;13.80;5.00
1381;DHT22;684;48.342;10.096;2024-02-04T12:32:32;13.70;5.50
1381;DHT22;684;48.342;10.096;2024-02-04T12:34:59;13.60;5.60
1381;DHT22;684;48.342;10.096;2024-02-04T12:37:26;13.40;6.00
1381;DHT22;684;48.342;10.096;2024-02-04T12:39:55;13.40;6.70
1381;DHT22;684;48.342;10.096;2024-02-04T12:42:24;13.30;6.60
1381;DHT22;684;48.342;10.096;2024-02-04T12:44:51;13.20;6.50
1381;DHT22;684;48.342;10.096;2024-02-04T12:47:19;13.00;7.00
1381;DHT22;684;48.342;10.096;2024-02-04T12:49:46;12.90;7.40
1381;DHT22;684;48.342;10.096;2024-02-04T12:52:13;12.80;7.80
1381;DHT22;684;48.342;10.096;2024-02-04T12:54:43;12.80;8.60
1381;DHT22;684;48.342;10.096;2024-02-04T12:57:21;13.00;8.40
1381;DHT22;684;48.342;10.096;2024-02-04T12:59:48;13.30;7.90
1381;DHT22;684;48.342;10.096;2024-02-04T13:02:15;13.50;7.50
1381;DHT22;684;48.342;10.096;2024-02-04T13:04:42;13.70;7.00
1381;DHT22;684;48.342;10.096;2024-02-04T13:07:11;13.60;6.80
1381;DHT22;684;48.342;10.096;2024-02-04T13:09:38;13.60;6.80
1381;DHT22;684;48.342;10.096;2024-02-04T13:12:05;13.30;7.00
1381;DHT22;684;48.342;10.096;2024-02-04T13:14:34;13.30;7.50
1381;DHT22;684;48.342;10.096;2024-02-04T13:17:02;13.20;7.70
1381;DHT22;684;48.342;10.096;2024-02-04T13:19:32;13.10;8.10
1381;DHT22;684;48.342;10.096;2024-02-04T13:22:01;13.10;8.20
1381;DHT22;684;48.342;10.096;2024-02-04T13:24:28;13.00;8.20
1381;DHT22;684;48.342;10.096;2024-02-04T13:26:55;12.90;8.30
1381;DHT22;684;48.342;10.096;2024-02-04T13:29:22;12.90;8.60
1381;DHT22;684;48.342;10.096;2024-02-04T13:31:50;12.90;8.60
1381;DHT22;684;48.342;10.096;2024-02-04T13:34:17;12.80;9.10
1381;DHT22;684;48.342;10.096;2024-02-04T13:36:45;12.80;9.20
1381;DHT22;684;48.342;10.096;2024-02-04T13:39:11;12.90;9.40
1381;DHT22;684;48.342;10.096;2024-02-04T13:41:39;13.00;9.30
1381;DHT22;684;48.342;10.096;2024-02-04T13:44:05;13.00;9.00
1381;DHT22;684;48.342;10.096;2024-02-04T13:46:32;13.00;9.00
1381;DHT22;684;48.342;10.096;2024-02-04T13:49:01;13.00;9.30
1381;DHT22;684;48.342;10.096;2024-02-04T13:51:28;13.10;9.20
1381;DHT22;684;48.342;10.096;2024-02-04T13:53:55;13.00;9.20
1381;DHT22;684;48.342;10.096;2024-02-04T13:56:22;13.00;9.10
1381;DHT22;684;48.342;10.096;2024-02-04T13:58:49;13.00;9.10
1381;DHT22;684;48.342;10.096;2024-02-04T14:01:15;13.00;9.10
1381;DHT22;684;48.342;10.096;2024-02-04T14:03:43;12.90;9.40
1381;DHT22;684;48.342;10.096;2024-02-04T14:06:11;12.90;9.70
1381;DHT22;684;48.342;10.096;2024-02-04T14:08:39;12.90;9.80
1381;DHT22;684;48.342;10.096;2024-02-04T14:11:05;12.80;9.80
1381;DHT22;684;48.342;10.096;2024-02-04T14:13:32;12.70;9.90
1381;DHT22;684;48.342;10.096;2024-02-04T14:16:00;12.70;10.10
1381;DHT22;684;48.342;10.096;2024-02-04T14:18:26;12.60;10.00
1381;DHT22;684;48.342;10.096;2024-02-04T14:20:53;12.50;10.30
1381;DHT22;684;48.342;10.096;2024-02-04T14:23:21;12.50;10.40
1381;DHT22;684;48.342;10.096;2024-02-04T14:25:48;12.50;10.60
1381;DHT22;684;48.342;10.096;2024-02-04T14:28:14;12.40;10.60
1381;DHT22;684;48.342;10.096;2024-02-04T14:30:41;12.40;10.90
1381;DHT22;684;48.342;10.096;2024-02-04T14:33:08;12.30;10.90
1381;DHT22;684;48.342;10.096;2024-02-04T14:35:35;12.30;11.10
1381;DHT22;684;48.342;10.096;2024-02-04T14:38:01;12.30;11.20
1381;DHT22;684;48.342;10.096;2024-02-04T14:40:30;12.30;11.20
1381;DHT22;684;48.342;10.096;2024-02-04T14:42:56;12.20;11.40
1381;DHT22;684;48.342;10.096;2024-02-04T14:45:23;12.20;11.40
1381;DHT22;684;48.342;10.096;2024-02-04T14:47:50;12.20;11.60
1381;DHT22;684;48.342;10.096;2024-02-04T14:50:17;12.20;11.60
1381;DHT22;684;48.342;10.096;2024-02-04T14:52:44;12.20;11.90
1381;DHT22;684;48.342;10.096;2024-02-04T14:55:11;12.20;12.00
1381;DHT22;684;48.342;10.096;2024-02-04T14:57:39;12.20;12.00
1381;DHT22;684;48.342;10.096;2024-02-04T15:00:07;12.20;12.10
1381;DHT22;684;48.342;10.096;2024-02-04T15:02:35;12.10;12.30
1381;DHT22;684;48.342;10.096;2024-02-04T15:05:02;12.10;12.40
1381;DHT22;684;48.342;10.096;2024-02-04T15:07:29;12.10;12.50
1381;DHT22;684;48.342;10.096;2024-02-04T15:09:55;12.10;12.60
1381;DHT22;684;48.342;10.096;2024-02-04T15:12:24;12.00;12.70
1381;DHT22;684;48.342;10.096;2024-02-04T15:14:52;12.00;12.80
1381;DHT22;684;48.342;10.096;2024-02-04T15:17:19;12.00;12.70
1381;DHT22;684;48.342;10.096;2024-02-04T15:19:47;12.00;12.80
1381;DHT22;684;48.342;10.096;2024-02-04T15:22:14;12.00;12.90
1381;DHT22;684;48.342;10.096;2024-02-04T15:24:41;11.90;13.10
1381;DHT22;684;48.342;10.096;2024-02-04T15:27:08;11.90;13.10
1381;DHT22;684;48.342;10.096;2024-02-04T15:29:37;11.90;13.10
1381;DHT22;684;48.342;10.096;2024-02-04T15:32:06;11.80;13.10
1381;DHT22;684;48.342;10.096;2024-02-04T15:34:34;11.80;12.90
1381;DHT22;684;48.342;10.096;2024-02-04T15:37:01;11.80;12.90
1381;DHT22;684;48.342;10.096;2024-02-04T15:39:28;11.80;13.10
1381;DHT22;684;48.342;10.096;2024-02-04T15:41:55;11.80;12.90
1381;DHT22;684;48.342;10.096;2024-02-04T15:44:22;11.70;13.10
1381;DHT22;684;48.342;10.096;2024-02-04T15:46:49;11.70;13.30
1381;DHT22;684;48.342;10.096;2024-02-04T15:49:18;11.60;13.30
1381;DHT22;684;48.342;10.096;2024-02-04T15:51:46;11.60;13.50
1381;DHT22;684;48.342;10.096;2024-02-04T15:54:13;11.60;13.60
1381;DHT22;684;48.342;10.096;2024-02-04T15:56:42;11.60;13.70
1381;DHT22;684;48.342;10.096;2024-02-04T15:59:11;11.50;13.70
1381;DHT22;684;48.342;10.096;2024-02-04T16:01:39;11.60;13.70
1381;DHT22;684;48.342;10.096;2024-02-04T16:04:07;11.50;13.90
1381;DHT22;684;48.342;10.096;2024-02-04T16:06:38;11.50;13.80
1381;DHT22;684;48.342;10.096;2024-02-04T16:09:05;11.50;13.80
1381;DHT22;684;48.342;10.096;2024-02-04T16:11:40;11.50;13.70
1381;DHT22;684;48.342;10.096;2024-02-04T16:14:09;11.40;13.70
1381;DHT22;684;48.342;10.096;2024-02-04T16:16:39;11.40;13.80